createdAt,value
2019-02-11T00:00:59.806Z,2.77
2019-02-11T00:02:03.956Z,2.75
2019-02-11T00:03:08.198Z,2.72
2019-02-11T00:04:15.271Z,2.71
2019-02-11T00:05:18.446Z,2.72
2019-02-11T00:06:22.598Z,2.71
2019-02-11T00:07:26.660Z,2.68
2019-02-11T00:08:30.879Z,2.69
2019-02-11T00:09:35.096Z,2.68
2019-02-11T00:10:39.283Z,2.61
2019-02-11T00:11:43.483Z,2.56
2019-02-11T00:12:47.638Z,2.53
2019-02-11T00:13:51.888Z,2.45
2019-02-11T00:14:55.925Z,2.36
2019-02-11T00:16:00.082Z,2.32
2019-02-11T00:17:04.096Z,2.29
2019-02-11T00:18:08.388Z,2.26
2019-02-11T00:19:12.470Z,2.13
2019-02-11T00:20:16.546Z,2.07
2019-02-11T00:21:20.783Z,2.05
2019-02-11T00:22:24.868Z,2.01
2019-02-11T00:23:29.035Z,1.98
2019-02-11T00:24:33.157Z,1.93
2019-02-11T00:25:37.378Z,1.87
2019-02-11T00:26:41.541Z,1.75
2019-02-11T00:27:45.553Z,1.68
2019-02-11T00:28:49.813Z,1.60
2019-02-11T00:29:54.043Z,1.56
2019-02-11T00:30:58.140Z,1.50
2019-02-11T00:32:02.355Z,1.46
2019-02-11T00:33:06.518Z,1.43
2019-02-11T00:34:10.628Z,1.40
2019-02-11T00:35:14.730Z,1.40
2019-02-11T00:36:18.976Z,1.36
2019-02-11T00:37:22.990Z,1.35
2019-02-11T00:38:27.035Z,1.33
2019-02-11T00:39:31.393Z,1.33
2019-02-11T00:40:35.447Z,1.32
2019-02-11T00:41:39.660Z,1.30
2019-02-11T00:42:43.697Z,1.28
2019-02-11T00:43:47.871Z,1.29
2019-02-11T00:44:51.975Z,1.29
2019-02-11T00:45:56.197Z,1.30
2019-02-11T00:47:00.315Z,1.31
2019-02-11T00:48:04.438Z,1.30
2019-02-11T00:49:08.588Z,1.30
2019-02-11T00:50:12.732Z,1.30
2019-02-11T00:51:16.905Z,1.31
2019-02-11T00:52:21.067Z,1.36
2019-02-11T00:53:25.229Z,1.37
2019-02-11T00:54:29.395Z,1.38
2019-02-11T00:55:33.510Z,1.38
2019-02-11T00:56:37.589Z,1.42
2019-02-11T00:57:41.889Z,1.42
2019-02-11T00:58:45.926Z,1.43
2019-02-11T00:59:50.118Z,1.45
2019-02-11T01:00:54.298Z,1.48
2019-02-11T01:01:58.379Z,1.51
2019-02-11T01:03:02.485Z,1.52
2019-02-11T01:04:06.713Z,1.56
2019-02-11T01:05:10.846Z,1.59
2019-02-11T01:06:15.004Z,1.60
2019-02-11T01:07:19.192Z,1.62
2019-02-11T01:08:23.293Z,1.64
2019-02-11T01:09:27.352Z,1.66
2019-02-11T01:10:31.582Z,1.68
2019-02-11T01:11:35.685Z,1.72
2019-02-11T01:12:39.920Z,1.75
2019-02-11T01:13:43.966Z,1.77
2019-02-11T01:14:48.201Z,1.81
2019-02-11T01:15:52.342Z,1.84
2019-02-11T01:16:56.441Z,1.89
2019-02-11T01:18:00.667Z,1.90
2019-02-11T01:19:04.765Z,1.91
2019-02-11T01:20:08.966Z,1.92
2019-02-11T01:21:13.099Z,1.95
2019-02-11T01:22:17.333Z,1.97
2019-02-11T01:23:21.451Z,2.00
2019-02-11T01:24:25.676Z,2.02
2019-02-11T01:25:29.860Z,2.06
2019-02-11T01:26:34.060Z,2.08
2019-02-11T01:27:38.218Z,2.10
2019-02-11T01:28:42.331Z,2.14
2019-02-11T01:29:46.539Z,2.20
2019-02-11T01:30:50.642Z,2.29
2019-02-11T01:31:54.781Z,2.36
2019-02-11T01:32:59.023Z,2.44
2019-02-11T01:34:03.231Z,2.56
2019-02-11T01:35:07.415Z,2.74
2019-02-11T01:36:11.545Z,2.88
2019-02-11T01:37:15.769Z,2.96
2019-02-11T01:38:19.933Z,3.03
2019-02-11T01:39:24.110Z,3.11
2019-02-11T01:40:28.325Z,3.18
2019-02-11T01:41:32.537Z,3.26
2019-02-11T01:42:36.671Z,3.34
2019-02-11T01:43:40.939Z,3.41
2019-02-11T01:44:45.119Z,3.46
2019-02-11T01:45:49.216Z,3.50
2019-02-11T01:46:53.556Z,3.55
2019-02-11T01:47:57.616Z,3.56
2019-02-11T01:49:01.863Z,3.58
2019-02-11T01:50:06.051Z,3.59
2019-02-11T01:51:10.106Z,3.61
2019-02-11T01:52:14.378Z,3.60
2019-02-11T01:53:18.419Z,3.58
2019-02-11T01:54:22.565Z,3.60
2019-02-11T01:55:26.845Z,3.61
2019-02-11T01:56:30.946Z,3.58
2019-02-11T01:57:35.217Z,3.58
2019-02-11T01:58:39.435Z,3.58
2019-02-11T01:59:43.654Z,3.55
2019-02-11T02:00:47.772Z,3.55
2019-02-11T02:01:51.948Z,3.53
2019-02-11T02:02:56.187Z,3.51
2019-02-11T02:04:00.363Z,3.50
2019-02-11T02:05:04.577Z,3.48
2019-02-11T02:06:08.775Z,3.47
2019-02-11T02:07:12.979Z,3.46
2019-02-11T02:08:17.094Z,3.47
2019-02-11T02:09:21.225Z,3.44
2019-02-11T02:10:25.464Z,3.43
2019-02-11T02:11:29.651Z,3.43
2019-02-11T02:12:33.758Z,3.43
2019-02-11T02:13:44.618Z,3.41
2019-02-11T02:14:42.168Z,3.40
2019-02-11T02:15:46.281Z,3.39
2019-02-11T02:16:50.466Z,3.37
2019-02-11T02:17:54.700Z,3.32
2019-02-11T02:18:58.799Z,3.32
2019-02-11T02:20:02.941Z,3.30
2019-02-11T02:21:07.074Z,3.24
2019-02-11T02:22:11.247Z,3.20
2019-02-11T02:23:15.389Z,3.18
2019-02-11T02:24:19.519Z,3.19
2019-02-11T02:25:23.735Z,3.18
2019-02-11T02:26:27.872Z,3.17
2019-02-11T02:27:32.035Z,3.16
2019-02-11T02:28:36.118Z,3.13
2019-02-11T02:29:40.448Z,3.16
2019-02-11T02:30:44.608Z,3.16
2019-02-11T02:31:48.781Z,3.15
2019-02-11T02:32:52.972Z,3.16
2019-02-11T02:33:57.025Z,3.15
2019-02-11T02:35:01.158Z,3.15
2019-02-11T02:36:05.350Z,3.15
2019-02-11T02:37:09.633Z,3.13
2019-02-11T02:38:13.806Z,3.13
2019-02-11T02:39:17.827Z,3.12
2019-02-11T02:40:22.125Z,3.13
2019-02-11T02:41:26.298Z,3.13
2019-02-11T02:42:30.517Z,3.14
2019-02-11T02:43:34.687Z,3.14
2019-02-11T02:44:38.752Z,3.13
2019-02-11T02:45:42.909Z,3.13
2019-02-11T02:46:46.954Z,3.14
2019-02-11T02:47:51.278Z,3.16
2019-02-11T02:48:55.435Z,3.19
2019-02-11T02:49:59.638Z,3.22
2019-02-11T02:51:03.839Z,3.26
2019-02-11T02:52:07.888Z,3.28
2019-02-11T02:53:12.144Z,3.30
2019-02-11T02:54:16.308Z,3.32
2019-02-11T02:55:20.386Z,3.31
2019-02-11T02:56:24.519Z,3.33
2019-02-11T02:57:28.719Z,3.33
2019-02-11T02:58:32.935Z,3.35
2019-02-11T02:59:37.147Z,3.36
2019-02-11T03:00:41.276Z,3.38
2019-02-11T03:01:45.415Z,3.39
2019-02-11T03:02:49.745Z,3.39
2019-02-11T03:03:53.924Z,3.40
2019-02-11T03:04:58.034Z,3.39
2019-02-11T03:06:02.287Z,3.41
2019-02-11T03:07:06.434Z,3.42
2019-02-11T03:08:10.579Z,3.41
2019-02-11T03:09:14.694Z,3.41
2019-02-11T03:10:18.793Z,3.42
2019-02-11T03:11:23.087Z,3.43
2019-02-11T03:12:27.175Z,3.43
2019-02-11T03:13:31.450Z,3.43
2019-02-11T03:14:35.533Z,3.43
2019-02-11T03:15:39.828Z,3.45
2019-02-11T03:16:43.933Z,3.46
2019-02-11T03:17:48.175Z,3.44
2019-02-11T03:18:52.378Z,3.45
2019-02-11T03:19:56.441Z,3.45
2019-02-11T03:21:00.631Z,3.45
2019-02-11T03:22:04.719Z,3.45
2019-02-11T03:23:08.966Z,3.45
2019-02-11T03:24:13.194Z,3.41
2019-02-11T03:25:17.390Z,3.42
2019-02-11T03:26:21.608Z,3.45
2019-02-11T03:27:25.726Z,3.46
2019-02-11T03:28:30.016Z,3.45
2019-02-11T03:29:34.088Z,3.44
2019-02-11T03:30:38.320Z,3.42
2019-02-11T03:31:42.536Z,3.44
2019-02-11T03:32:46.740Z,3.45
2019-02-11T03:33:50.851Z,3.48
2019-02-11T03:34:55.028Z,3.48
2019-02-11T03:35:59.186Z,3.47
2019-02-11T03:37:03.391Z,3.48
2019-02-11T03:38:07.573Z,3.49
2019-02-11T03:39:11.822Z,3.48
2019-02-11T03:40:16.001Z,3.48
2019-02-11T03:41:20.199Z,3.51
2019-02-11T03:42:24.238Z,3.52
2019-02-11T03:43:28.481Z,3.55
2019-02-11T03:44:32.620Z,3.57
2019-02-11T03:45:36.852Z,3.58
2019-02-11T03:46:41.055Z,3.61
2019-02-11T03:47:45.246Z,3.63
2019-02-11T03:48:49.407Z,3.64
2019-02-11T03:49:53.601Z,3.66
2019-02-11T03:50:57.753Z,3.66
2019-02-11T03:52:01.980Z,3.67
2019-02-11T03:53:06.200Z,3.67
2019-02-11T03:54:10.362Z,3.68
2019-02-11T03:55:14.520Z,3.69
2019-02-11T03:56:18.747Z,3.70
2019-02-11T03:57:22.844Z,3.71
2019-02-11T03:58:27.008Z,3.72
2019-02-11T03:59:31.286Z,3.73
2019-02-11T04:00:35.415Z,3.73
2019-02-11T04:01:39.620Z,3.73
2019-02-11T04:02:43.803Z,3.74
2019-02-11T04:03:47.913Z,3.74
2019-02-11T04:04:52.116Z,3.75
2019-02-11T04:05:56.293Z,3.77
2019-02-11T04:07:00.517Z,3.78
2019-02-11T04:08:04.728Z,3.80
2019-02-11T04:09:08.956Z,3.81
2019-02-11T04:10:13.138Z,3.82
2019-02-11T04:11:17.331Z,3.83
2019-02-11T04:12:21.539Z,3.83
2019-02-11T04:13:25.686Z,3.82
2019-02-11T04:14:29.942Z,3.82
2019-02-11T04:15:34.044Z,3.83
2019-02-11T04:16:38.272Z,3.82
2019-02-11T04:17:42.496Z,3.81
2019-02-11T04:18:46.687Z,3.81
2019-02-11T04:19:50.708Z,3.81
2019-02-11T04:20:54.877Z,3.81
2019-02-11T04:21:59.039Z,3.80
2019-02-11T04:23:03.195Z,3.80
2019-02-11T04:24:07.343Z,3.80
2019-02-11T04:25:11.525Z,3.80
2019-02-11T04:26:15.628Z,3.80
2019-02-11T04:27:19.860Z,3.82
2019-02-11T04:28:24.040Z,3.84
2019-02-11T04:29:28.215Z,3.84
2019-02-11T04:30:32.433Z,3.85
2019-02-11T04:31:36.481Z,3.87
2019-02-11T04:32:40.743Z,3.88
2019-02-11T04:33:44.861Z,3.89
2019-02-11T04:34:49.136Z,3.88
2019-02-11T04:35:53.291Z,3.89
2019-02-11T04:36:57.509Z,3.89
2019-02-11T04:38:01.622Z,3.89
2019-02-11T04:39:05.850Z,3.88
2019-02-11T04:40:10.000Z,3.87
2019-02-11T04:41:14.211Z,3.87
2019-02-11T04:42:18.373Z,3.88
2019-02-11T04:43:22.581Z,3.89
2019-02-11T04:44:33.815Z,3.87
2019-02-11T04:45:30.808Z,3.88
2019-02-11T04:46:35.093Z,3.87
2019-02-11T04:47:39.276Z,3.87
2019-02-11T04:48:43.409Z,3.86
2019-02-11T04:49:47.592Z,3.85
2019-02-11T04:50:51.838Z,3.86
2019-02-11T04:51:55.998Z,3.87
2019-02-11T04:53:00.224Z,3.84
2019-02-11T04:54:04.315Z,3.85
2019-02-11T04:55:08.465Z,3.84
2019-02-11T04:56:12.649Z,3.84
2019-02-11T04:57:16.820Z,3.85
2019-02-11T04:58:21.067Z,3.82
2019-02-11T04:59:25.214Z,3.80
2019-02-11T05:00:29.415Z,3.80
2019-02-11T05:01:33.535Z,3.80
2019-02-11T05:02:37.779Z,3.76
2019-02-11T05:03:41.906Z,3.78
2019-02-11T05:04:46.164Z,3.76
2019-02-11T05:05:50.380Z,3.74
2019-02-11T05:06:54.412Z,3.74
2019-02-11T05:07:58.710Z,3.71
2019-02-11T05:09:02.879Z,3.70
2019-02-11T05:10:07.083Z,3.69
2019-02-11T05:11:11.323Z,3.70
2019-02-11T05:12:15.506Z,3.62
2019-02-11T05:13:19.695Z,3.65
2019-02-11T05:14:23.079Z,3.61
2019-02-11T05:15:27.278Z,3.65
2019-02-11T05:16:31.526Z,3.55
2019-02-11T05:17:35.590Z,3.48
2019-02-11T05:18:39.853Z,3.54
2019-02-11T05:19:43.953Z,3.49
2019-02-11T05:20:48.163Z,3.49
2019-02-11T05:21:52.363Z,3.47
2019-02-11T05:22:56.546Z,3.43
2019-02-11T05:24:00.648Z,3.44
2019-02-11T05:25:04.883Z,3.32
2019-02-11T05:26:09.114Z,3.29
2019-02-11T05:27:13.201Z,3.31
2019-02-11T05:28:17.369Z,3.38
2019-02-11T05:29:21.608Z,3.41
2019-02-11T05:30:25.743Z,3.37
2019-02-11T05:31:32.525Z,3.36
2019-02-11T05:32:34.221Z,3.36
2019-02-11T05:33:38.395Z,3.39
2019-02-11T05:34:42.596Z,3.35
2019-02-11T05:35:46.702Z,3.32
2019-02-11T05:36:50.993Z,3.33
2019-02-11T05:37:55.188Z,3.35
2019-02-11T05:38:59.385Z,3.36
2019-02-11T05:40:03.612Z,3.32
2019-02-11T05:41:07.697Z,3.37
2019-02-11T05:42:11.920Z,3.40
2019-02-11T05:43:16.162Z,3.41
2019-02-11T05:44:20.341Z,3.41
2019-02-11T05:45:24.535Z,3.40
2019-02-11T05:46:28.716Z,3.40
2019-02-11T05:47:32.956Z,3.43
2019-02-11T05:48:37.146Z,3.44
2019-02-11T05:49:41.318Z,3.45
2019-02-11T05:50:45.532Z,3.47
2019-02-11T05:51:49.656Z,3.49
2019-02-11T05:52:53.865Z,3.52
2019-02-11T05:53:57.956Z,3.54
2019-02-11T05:55:02.114Z,3.55
2019-02-11T05:56:06.321Z,3.53
2019-02-11T05:57:10.556Z,3.55
2019-02-11T05:58:14.743Z,3.56
2019-02-11T05:59:18.947Z,3.55
2019-02-11T06:00:23.151Z,3.56
2019-02-11T06:01:27.304Z,3.58
2019-02-11T06:02:31.528Z,3.57
2019-02-11T06:03:35.726Z,3.59
2019-02-11T06:04:39.926Z,3.59
2019-02-11T06:05:44.169Z,3.56
2019-02-11T06:06:48.324Z,3.58
2019-02-11T06:07:52.510Z,3.60
2019-02-11T06:08:56.743Z,3.57
2019-02-11T06:10:00.963Z,3.48
2019-02-11T06:11:05.178Z,3.45
2019-02-11T06:12:09.372Z,3.47
2019-02-11T06:13:13.561Z,3.43
2019-02-11T06:14:17.759Z,3.44
2019-02-11T06:15:21.877Z,3.49
2019-02-11T06:16:26.039Z,3.50
2019-02-11T06:17:30.307Z,3.52
2019-02-11T06:18:34.378Z,3.45
2019-02-11T06:19:38.573Z,3.45
2019-02-11T06:20:42.738Z,3.48
2019-02-11T06:21:46.977Z,3.44
2019-02-11T06:22:51.107Z,3.39
2019-02-11T06:23:55.283Z,3.30
2019-02-11T06:24:59.555Z,3.33
2019-02-11T06:26:03.728Z,3.40
2019-02-11T06:27:07.894Z,3.32
2019-02-11T06:28:12.047Z,3.30
2019-02-11T06:29:16.243Z,3.21
2019-02-11T06:30:20.473Z,3.27
2019-02-11T06:31:24.646Z,3.17
2019-02-11T06:32:28.800Z,3.23
2019-02-11T06:33:32.995Z,3.05
2019-02-11T06:34:37.102Z,3.00
2019-02-11T06:35:41.340Z,2.96
2019-02-11T06:36:45.458Z,3.08
2019-02-11T06:37:49.730Z,3.07
2019-02-11T06:38:53.900Z,3.10
2019-02-11T06:39:58.085Z,2.97
2019-02-11T06:41:05.238Z,2.93
2019-02-11T06:42:08.378Z,2.94
2019-02-11T06:43:12.652Z,2.98
2019-02-11T06:44:16.826Z,2.99
2019-02-11T06:45:21.045Z,2.95
2019-02-11T06:46:25.158Z,3.00
2019-02-11T06:47:29.420Z,3.04
2019-02-11T06:48:33.629Z,3.07
2019-02-11T06:49:37.782Z,3.07
2019-02-11T06:50:41.965Z,3.08
2019-02-11T06:51:46.056Z,3.01
2019-02-11T06:52:50.198Z,2.98
2019-02-11T06:53:54.468Z,2.92
2019-02-11T06:54:58.612Z,2.96
2019-02-11T06:56:02.755Z,2.99
2019-02-11T06:57:07.025Z,2.96
2019-02-11T06:58:11.171Z,3.01
2019-02-11T06:59:15.440Z,2.94
2019-02-11T07:00:19.610Z,2.95
2019-02-11T07:01:23.765Z,2.97
2019-02-11T07:02:27.872Z,2.94
2019-02-11T07:03:32.099Z,2.88
2019-02-11T07:04:36.305Z,2.84
2019-02-11T07:05:40.434Z,2.87
2019-02-11T07:06:44.666Z,2.87
2019-02-11T07:07:48.854Z,2.74
2019-02-11T07:08:53.036Z,2.75
2019-02-11T07:09:57.272Z,2.77
2019-02-11T07:11:01.492Z,2.67
2019-02-11T07:12:05.658Z,2.66
2019-02-11T07:13:09.829Z,2.74
2019-02-11T07:14:14.069Z,2.69
2019-02-11T07:15:22.263Z,2.68
2019-02-11T07:16:22.223Z,2.68
2019-02-11T07:17:26.520Z,2.64
2019-02-11T07:18:30.628Z,2.74
2019-02-11T07:19:34.861Z,2.67
2019-02-11T07:20:38.961Z,2.68
2019-02-11T07:21:43.116Z,2.68
2019-02-11T07:22:47.368Z,2.73
2019-02-11T07:23:51.544Z,2.78
2019-02-11T07:24:55.751Z,2.79
2019-02-11T07:25:59.930Z,2.81
2019-02-11T07:27:04.026Z,2.71
2019-02-11T07:28:08.242Z,2.71
2019-02-11T07:29:12.493Z,2.77
2019-02-11T07:30:16.591Z,2.73
2019-02-11T07:31:20.739Z,2.75
2019-02-11T07:32:24.936Z,2.73
2019-02-11T07:33:29.121Z,2.74
2019-02-11T07:34:33.198Z,2.68
2019-02-11T07:35:37.439Z,2.67
2019-02-11T07:36:41.550Z,2.73
2019-02-11T07:37:45.713Z,2.78
2019-02-11T07:38:49.884Z,2.72
2019-02-11T07:39:54.091Z,2.77
2019-02-11T07:40:58.212Z,2.75
2019-02-11T07:42:02.460Z,2.73
2019-02-11T07:43:06.628Z,2.78
2019-02-11T07:44:10.793Z,2.80
2019-02-11T07:45:15.050Z,2.76
2019-02-11T07:46:19.261Z,2.77
2019-02-11T07:47:23.390Z,2.76
2019-02-11T07:48:27.598Z,2.77
2019-02-11T07:49:31.784Z,2.79
2019-02-11T07:50:36.038Z,2.82
2019-02-11T07:51:42.264Z,2.80
2019-02-11T07:52:44.362Z,2.85
2019-02-11T07:53:48.626Z,2.81
2019-02-11T07:54:52.845Z,2.75
2019-02-11T07:55:56.944Z,2.75
2019-02-11T07:57:01.121Z,2.81
2019-02-11T07:58:05.338Z,2.81
2019-02-11T07:59:09.546Z,2.82
2019-02-11T08:00:13.666Z,2.82
2019-02-11T08:01:17.833Z,2.82
2019-02-11T08:02:22.037Z,2.86
2019-02-11T08:03:26.250Z,2.79
2019-02-11T08:04:30.436Z,2.77
2019-02-11T08:05:34.694Z,2.62
2019-02-11T08:06:38.742Z,2.61
2019-02-11T08:07:42.998Z,2.60
2019-02-11T08:08:47.195Z,2.69
2019-02-11T08:09:51.218Z,2.74
2019-02-11T08:10:55.452Z,2.67
2019-02-11T08:12:00.407Z,2.68
2019-02-11T08:13:03.836Z,2.68
2019-02-11T08:14:07.894Z,2.67
2019-02-11T08:15:12.239Z,2.63
2019-02-11T08:16:16.363Z,2.66
2019-02-11T08:17:20.547Z,2.64
2019-02-11T08:18:24.738Z,2.62
2019-02-11T08:19:28.989Z,2.62
2019-02-11T08:20:33.180Z,2.70
2019-02-11T08:21:37.303Z,2.57
2019-02-11T08:22:41.542Z,2.57
2019-02-11T08:23:45.659Z,2.58
2019-02-11T08:24:49.797Z,2.65
2019-02-11T08:25:53.984Z,2.66
2019-02-11T08:26:58.271Z,2.64
2019-02-11T08:28:02.455Z,2.65
2019-02-11T08:29:06.612Z,2.61
2019-02-11T08:30:10.834Z,2.64
2019-02-11T08:31:14.964Z,2.67
2019-02-11T08:32:19.089Z,2.64
2019-02-11T08:33:23.276Z,2.63
2019-02-11T08:34:27.389Z,2.64
2019-02-11T08:35:31.498Z,2.61
2019-02-11T08:36:35.800Z,2.62
2019-02-11T08:37:39.890Z,2.62
2019-02-11T08:38:44.122Z,2.60
2019-02-11T08:39:48.216Z,2.63
2019-02-11T08:40:52.505Z,2.64
2019-02-11T08:41:56.570Z,2.67
2019-02-11T08:43:00.844Z,2.65
2019-02-11T08:44:05.008Z,2.64
2019-02-11T08:45:09.188Z,2.63
2019-02-11T08:46:13.357Z,2.67
2019-02-11T08:47:19.381Z,2.69
2019-02-11T08:48:21.792Z,2.68
2019-02-11T08:49:26.013Z,2.62
2019-02-11T08:50:30.211Z,2.62
2019-02-11T08:51:34.424Z,2.61
2019-02-11T08:52:38.542Z,2.63
2019-02-11T08:53:42.676Z,2.67
2019-02-11T08:54:46.822Z,2.61
2019-02-11T08:55:50.938Z,2.52
2019-02-11T08:56:55.232Z,2.61
2019-02-11T08:57:59.357Z,2.66
2019-02-11T08:59:03.617Z,2.70
2019-02-11T09:00:07.705Z,2.67
2019-02-11T09:01:11.866Z,2.72
2019-02-11T09:02:16.057Z,2.69
2019-02-11T09:03:20.286Z,2.70
2019-02-11T09:04:24.397Z,2.74
2019-02-11T09:05:28.642Z,2.67
2019-02-11T09:06:32.915Z,2.73
2019-02-11T09:07:37.031Z,2.68
2019-02-11T09:08:41.268Z,2.71
2019-02-11T09:09:45.356Z,2.73
2019-02-11T09:10:49.515Z,2.74
2019-02-11T09:11:53.713Z,2.78
2019-02-11T09:12:57.946Z,2.76
2019-02-11T09:14:02.152Z,2.77
2019-02-11T09:15:06.381Z,2.79
2019-02-11T09:16:10.547Z,2.81
2019-02-11T09:17:14.786Z,2.78
2019-02-11T09:18:20.774Z,2.83
2019-02-11T09:19:23.045Z,2.79
2019-02-11T09:20:27.329Z,2.75
2019-02-11T09:21:31.525Z,2.74
2019-02-11T09:22:35.766Z,2.74
2019-02-11T09:23:39.869Z,2.75
2019-02-11T09:24:43.997Z,2.76
2019-02-11T09:25:48.152Z,2.80
2019-02-11T09:26:52.333Z,2.81
2019-02-11T09:27:56.541Z,2.74
2019-02-11T09:29:00.760Z,2.75
2019-02-11T09:30:04.889Z,2.74
2019-02-11T09:31:09.039Z,2.75
2019-02-11T09:32:13.253Z,2.70
2019-02-11T09:33:17.547Z,2.73
2019-02-11T09:34:21.651Z,2.75
2019-02-11T09:35:25.836Z,2.77
2019-02-11T09:36:30.066Z,2.73
2019-02-11T09:37:34.219Z,2.75
2019-02-11T09:38:38.383Z,2.71
2019-02-11T09:39:42.498Z,2.73
2019-02-11T09:40:46.808Z,2.73
2019-02-11T09:41:50.945Z,2.75
2019-02-11T09:42:55.230Z,2.68
2019-02-11T09:43:59.341Z,2.68
2019-02-11T09:45:03.586Z,2.58
2019-02-11T09:46:07.757Z,2.52
2019-02-11T09:47:11.897Z,2.48
2019-02-11T09:48:16.027Z,2.50
2019-02-11T09:49:20.151Z,2.47
2019-02-11T09:50:24.450Z,2.50
2019-02-11T09:51:28.536Z,2.49
2019-02-11T09:52:32.746Z,2.52
2019-02-11T09:53:36.956Z,2.62
2019-02-11T09:54:41.149Z,2.65
2019-02-11T09:55:45.275Z,2.67
2019-02-11T09:56:49.503Z,2.64
2019-02-11T09:57:53.636Z,2.63
2019-02-11T09:58:57.907Z,2.61
2019-02-11T10:00:02.126Z,2.59
2019-02-11T10:01:06.249Z,2.61
2019-02-11T10:02:10.382Z,2.64
2019-02-11T10:03:14.557Z,2.64
2019-02-11T10:04:18.798Z,2.65
2019-02-11T10:05:22.955Z,2.69
2019-02-11T10:06:27.114Z,2.74
2019-02-11T10:07:31.354Z,2.78
2019-02-11T10:08:35.516Z,2.74
2019-02-11T10:09:39.745Z,2.68
2019-02-11T10:10:43.975Z,2.45
2019-02-11T10:11:48.106Z,2.48
2019-02-11T10:12:52.250Z,2.33
2019-02-11T10:13:56.518Z,2.38
2019-02-11T10:15:00.677Z,2.26
2019-02-11T10:16:12.276Z,2.30
2019-02-11T10:17:09.065Z,2.10
2019-02-11T10:18:13.289Z,2.23
2019-02-11T10:19:17.476Z,2.15
2019-02-11T10:20:21.603Z,2.13
2019-02-11T10:21:25.809Z,2.20
2019-02-11T10:22:29.892Z,2.24
2019-02-11T10:23:34.086Z,2.17
2019-02-11T10:24:38.317Z,1.92
2019-02-11T10:25:42.459Z,2.04
2019-02-11T10:26:47.198Z,1.84
2019-02-11T10:27:50.897Z,1.74
2019-02-11T10:28:55.008Z,1.60
2019-02-11T10:29:59.081Z,1.72
2019-02-11T10:31:03.410Z,1.77
2019-02-11T10:32:07.583Z,1.86
2019-02-11T10:33:11.798Z,1.90
2019-02-11T10:34:15.981Z,1.90
2019-02-11T10:35:20.108Z,1.97
2019-02-11T10:36:24.340Z,1.96
2019-02-11T10:37:28.444Z,1.98
2019-02-11T10:38:36.555Z,1.99
2019-02-11T10:39:36.823Z,2.06
2019-02-11T10:40:40.958Z,2.14
2019-02-11T10:41:45.141Z,2.25
2019-02-11T10:42:49.373Z,2.29
2019-02-11T10:43:53.565Z,2.35
2019-02-11T10:44:57.670Z,2.35
2019-02-11T10:46:01.858Z,2.33
2019-02-11T10:47:06.175Z,2.33
2019-02-11T10:48:10.330Z,2.36
2019-02-11T10:49:14.564Z,2.38
2019-02-11T10:50:18.591Z,2.44
2019-02-11T10:51:22.863Z,2.49
2019-02-11T10:52:27.126Z,2.48
2019-02-11T10:53:31.300Z,2.50
2019-02-11T10:54:35.379Z,2.52
2019-02-11T10:55:39.661Z,2.48
2019-02-11T10:56:43.754Z,2.50
2019-02-11T10:57:47.915Z,2.55
2019-02-11T10:58:52.204Z,2.61
2019-02-11T10:59:56.414Z,2.58
2019-02-11T11:01:00.565Z,2.61
2019-02-11T11:02:04.780Z,2.62
2019-02-11T11:03:08.934Z,2.50
2019-02-11T11:04:13.199Z,2.20
2019-02-11T11:05:17.430Z,2.11
2019-02-11T11:06:21.613Z,2.07
2019-02-11T11:07:25.702Z,1.89
2019-02-11T11:08:29.960Z,1.93
2019-02-11T11:09:34.148Z,1.79
2019-02-11T11:10:38.282Z,1.87
2019-02-11T11:11:42.435Z,1.87
2019-02-11T11:12:46.686Z,1.78
2019-02-11T11:13:50.816Z,1.79
2019-02-11T11:14:55.096Z,1.81
2019-02-11T11:15:59.277Z,1.78
2019-02-11T11:17:03.466Z,1.84
2019-02-11T11:18:07.693Z,1.67
2019-02-11T11:19:11.845Z,1.80
2019-02-11T11:20:16.107Z,1.81
2019-02-11T11:21:20.303Z,1.72
2019-02-11T11:22:24.465Z,1.67
2019-02-11T11:23:28.665Z,1.66
2019-02-11T11:24:32.866Z,1.69
2019-02-11T11:25:36.986Z,1.68
2019-02-11T11:26:41.186Z,1.73
2019-02-11T11:27:45.435Z,1.79
2019-02-11T11:28:49.626Z,1.82
2019-02-11T11:29:53.762Z,1.83
2019-02-11T11:30:57.999Z,1.84
2019-02-11T11:32:02.091Z,1.81
2019-02-11T11:33:06.310Z,1.85
2019-02-11T11:34:10.476Z,1.90
2019-02-11T11:35:14.625Z,1.95
2019-02-11T11:36:18.921Z,1.91
2019-02-11T11:37:23.060Z,2.03
2019-02-11T11:38:27.306Z,2.08
2019-02-11T11:39:31.469Z,1.94
2019-02-11T11:40:35.790Z,1.91
2019-02-11T11:41:39.997Z,1.67
2019-02-11T11:42:44.134Z,1.64
2019-02-11T11:43:48.358Z,1.68
2019-02-11T11:44:52.589Z,1.74
2019-02-11T11:45:56.775Z,1.73
2019-02-11T11:47:00.961Z,1.77
2019-02-11T11:48:05.209Z,1.73
2019-02-11T11:49:09.361Z,1.58
2019-02-11T11:50:13.478Z,1.63
2019-02-11T11:51:17.707Z,1.43
2019-02-11T11:52:21.937Z,1.45
2019-02-11T11:53:26.157Z,1.45
2019-02-11T11:54:30.279Z,1.52
2019-02-11T11:55:34.477Z,1.57
2019-02-11T11:56:38.685Z,1.61
2019-02-11T11:57:42.927Z,1.53
2019-02-11T11:58:47.008Z,1.38
2019-02-11T11:59:51.173Z,1.46
2019-02-11T12:00:55.357Z,1.60
2019-02-11T12:01:59.527Z,1.62
2019-02-11T12:03:05.296Z,1.64
2019-02-11T12:04:07.956Z,1.74
2019-02-11T12:05:12.128Z,1.79
2019-02-11T12:06:16.235Z,1.71
2019-02-11T12:07:20.374Z,1.59
2019-02-11T12:08:24.550Z,1.61
2019-02-11T12:09:28.749Z,1.71
2019-02-11T12:10:33.024Z,1.59
2019-02-11T12:11:37.273Z,1.67
2019-02-11T12:12:41.466Z,1.60
2019-02-11T12:13:45.655Z,1.63
2019-02-11T12:14:49.794Z,1.61
2019-02-11T12:15:53.922Z,1.61
2019-02-11T12:17:02.693Z,1.61
2019-02-11T12:18:02.287Z,1.64
2019-02-11T12:19:06.518Z,1.61
2019-02-11T12:20:10.749Z,1.58
2019-02-11T12:21:14.927Z,1.61
2019-02-11T12:22:19.101Z,1.66
2019-02-11T12:23:23.273Z,1.76
2019-02-11T12:24:27.518Z,1.71
2019-02-11T12:25:31.735Z,1.73
2019-02-11T12:26:35.987Z,1.58
2019-02-11T12:27:40.107Z,1.65
2019-02-11T12:28:44.264Z,1.60
2019-02-11T12:29:48.434Z,1.69
2019-02-11T12:30:53.865Z,1.48
2019-02-11T12:31:56.792Z,1.45
2019-02-11T12:33:01.069Z,1.56
2019-02-11T12:34:05.168Z,1.65
2019-02-11T12:35:09.421Z,1.70
2019-02-11T12:36:13.499Z,1.74
2019-02-11T12:37:17.773Z,1.72
2019-02-11T12:38:22.026Z,1.80
2019-02-11T12:39:26.231Z,1.67
2019-02-11T12:40:30.365Z,1.69
2019-02-11T12:41:34.610Z,1.73
2019-02-11T12:42:38.716Z,1.77
2019-02-11T12:43:42.988Z,1.77
2019-02-11T12:44:47.189Z,1.74
2019-02-11T12:45:51.410Z,1.80
2019-02-11T12:47:12.824Z,1.78
2019-02-11T12:47:59.695Z,1.73
2019-02-11T12:49:03.961Z,1.65
2019-02-11T12:50:08.215Z,1.55
2019-02-11T12:51:12.383Z,1.59
2019-02-11T12:52:16.515Z,1.67
2019-02-11T12:53:20.801Z,1.57
2019-02-11T12:54:24.897Z,1.55
2019-02-11T12:55:29.048Z,1.58
2019-02-11T12:56:33.183Z,1.61
2019-02-11T12:57:37.460Z,1.63
2019-02-11T12:58:41.665Z,1.69
2019-02-11T12:59:45.878Z,1.56
2019-02-11T13:00:50.065Z,1.63
2019-02-11T13:01:54.204Z,1.50
2019-02-11T13:02:58.468Z,1.58
2019-02-11T13:04:03.469Z,1.56
2019-02-11T13:05:07.255Z,1.50
2019-02-11T13:06:11.427Z,1.54
2019-02-11T13:07:15.619Z,1.64
2019-02-11T13:08:19.826Z,1.64
2019-02-11T13:09:23.934Z,1.56
2019-02-11T13:10:28.144Z,1.64
2019-02-11T13:11:32.489Z,1.59
2019-02-11T13:12:36.643Z,1.52
2019-02-11T13:13:40.765Z,1.62
2019-02-11T13:14:44.927Z,1.64
2019-02-11T13:16:00.977Z,1.59
2019-02-11T13:16:53.185Z,1.51
2019-02-11T13:17:57.470Z,1.35
2019-02-11T13:19:01.645Z,1.38
2019-02-11T13:20:09.369Z,1.47
2019-02-11T13:21:10.055Z,1.42
2019-02-11T13:22:14.294Z,1.34
2019-02-11T13:23:18.509Z,1.19
2019-02-11T13:24:22.600Z,1.27
2019-02-11T13:25:26.826Z,1.19
2019-02-11T13:26:30.935Z,1.34
2019-02-11T13:27:35.129Z,1.40
2019-02-11T13:28:39.436Z,1.37
2019-02-11T13:29:43.573Z,1.33
2019-02-11T13:30:47.773Z,1.09
2019-02-11T13:31:51.903Z,1.29
2019-02-11T13:32:56.090Z,1.27
2019-02-11T13:34:00.325Z,1.06
2019-02-11T13:35:04.539Z,0.99
2019-02-11T13:36:08.621Z,0.88
2019-02-11T13:37:12.876Z,1.05
2019-02-11T13:38:16.984Z,1.06
2019-02-11T13:39:21.138Z,1.04
2019-02-11T13:40:25.432Z,1.38
2019-02-11T13:41:29.529Z,1.46
2019-02-11T13:42:33.677Z,1.17
2019-02-11T13:43:37.892Z,1.14
2019-02-11T13:44:42.152Z,1.02
2019-02-11T13:45:46.360Z,1.13
2019-02-11T13:46:50.505Z,1.18
2019-02-11T13:47:57.997Z,1.09
2019-02-11T13:48:58.979Z,1.03
2019-02-11T13:50:03.122Z,1.04
2019-02-11T13:51:07.376Z,1.19
2019-02-11T13:52:11.522Z,1.34
2019-02-11T13:53:15.679Z,1.30
2019-02-11T13:54:19.968Z,0.94
2019-02-11T13:55:24.103Z,1.01
2019-02-11T13:56:28.244Z,0.92
2019-02-11T13:57:32.451Z,0.98
2019-02-11T13:58:36.732Z,0.88
2019-02-11T13:59:40.834Z,1.07
2019-02-11T14:00:49.855Z,1.01
2019-02-11T14:01:49.147Z,1.06
2019-02-11T14:02:53.319Z,1.02
2019-02-11T14:03:57.506Z,1.20
2019-02-11T14:05:01.828Z,1.03
2019-02-11T14:06:05.879Z,0.85
2019-02-11T14:07:10.103Z,0.85
2019-02-11T14:08:14.326Z,0.80
2019-02-11T14:09:18.561Z,0.66
2019-02-11T14:10:22.769Z,0.68
2019-02-11T14:11:26.826Z,0.57
2019-02-11T14:12:31.110Z,0.59
2019-02-11T14:13:35.309Z,0.64
2019-02-11T14:14:39.514Z,0.65